sensor_id;sensor_type;location;lat;lon;timestamp;P1;durP1;ratioP1;P2;durP2;ratioP2
28551;SDS011;15752;49.560;8.708;2022-10-31T09:22:40;8.40;;;4.17;;
28551;SDS011;15752;49.560;8.708;2022-10-31T09:25:09;6.50;;;4.23;;
28551;SDS011;15752;49.560;8.708;2022-10-31T09:27:39;6.03;;;3.90;;
28551;SDS011;15752;49.560;8.708;2022-10-31T09:30:08;6.20;;;4.50;;
28551;SDS011;15752;49.560;8.708;2022-10-31T09:32:38;5.87;;;3.90;;
28551;SDS011;15752;49.560;8.708;2022-10-31T09:35:07;6.90;;;3.63;;
28551;SDS011;15752;49.560;8.708;2022-10-31T09:37:42;9.07;;;4.23;;
28551;SDS011;15752;49.560;8.708;2022-10-31T09:40:11;8.33;;;4.70;;
28551;SDS011;15752;49.560;8.708;2022-10-31T09:42:47;10.90;;;4.17;;
28551;SDS011;15752;49.560;8.708;2022-10-31T09:45:26;6.57;;;4.50;;
28551;SDS011;15752;49.560;8.708;2022-10-31T09:48:17;7.03;;;4.23;;
28551;SDS011;15752;49.560;8.708;2022-10-31T09:51:19;5.83;;;4.77;;
28551;SDS011;15752;49.560;8.708;2022-10-31T09:54:02;9.03;;;4.47;;
28551;SDS011;15752;49.560;8.708;2022-10-31T09:56:37;9.80;;;5.00;;
28551;SDS011;15752;49.560;8.708;2022-10-31T09:59:10;9.63;;;5.03;;
28551;SDS011;15752;49.560;8.708;2022-10-31T10:01:45;9.37;;;5.23;;
28551;SDS011;15752;49.560;8.708;2022-10-31T10:04:32;7.27;;;4.77;;
28551;SDS011;15752;49.560;8.708;2022-10-31T10:07:21;8.90;;;5.10;;
28551;SDS011;15752;49.560;8.708;2022-10-31T10:10:30;15.40;;;6.57;;
28551;SDS011;15752;49.560;8.708;2022-10-31T10:13:54;9.43;;;6.07;;
28551;SDS011;15752;49.560;8.708;2022-10-31T10:16:42;11.20;;;6.70;;
28551;SDS011;15752;49.560;8.708;2022-10-31T10:19:30;15.77;;;10.03;;
28551;SDS011;15752;49.560;8.708;2022-10-31T10:22:20;10.70;;;7.27;;
28551;SDS011;15752;49.560;8.708;2022-10-31T10:25:02;13.33;;;6.97;;
28551;SDS011;15752;49.560;8.708;2022-10-31T10:27:49;10.80;;;6.77;;
28551;SDS011;15752;49.560;8.708;2022-10-31T10:30:29;12.67;;;6.10;;
28551;SDS011;15752;49.560;8.708;2022-10-31T10:33:07;9.97;;;6.33;;
28551;SDS011;15752;49.560;8.708;2022-10-31T10:35:41;7.90;;;6.00;;
28551;SDS011;15752;49.560;8.708;2022-10-31T10:38:17;11.13;;;5.83;;
28551;SDS011;15752;49.560;8.708;2022-10-31T10:40:53;11.83;;;6.87;;
28551;SDS011;15752;49.560;8.708;2022-10-31T10:43:29;10.00;;;6.13;;
28551;SDS011;15752;49.560;8.708;2022-10-31T10:46:04;11.20;;;6.53;;
28551;SDS011;15752;49.560;8.708;2022-10-31T10:49:09;12.47;;;6.57;;
28551;SDS011;15752;49.560;8.708;2022-10-31T10:51:45;12.00;;;7.53;;
28551;SDS011;15752;49.560;8.708;2022-10-31T10:54:49;10.27;;;7.17;;
28551;SDS011;15752;49.560;8.708;2022-10-31T10:57:36;13.25;;;7.55;;
28551;SDS011;15752;49.560;8.708;2022-10-31T11:00:22;10.97;;;7.73;;
28551;SDS011;15752;49.560;8.708;2022-10-31T11:02:52;11.25;;;8.30;;
28551;SDS011;15752;49.560;8.708;2022-10-31T11:05:25;10.82;;;8.38;;
28551;SDS011;15752;49.560;8.708;2022-10-31T11:08:00;13.02;;;8.15;;
28551;SDS011;15752;49.560;8.708;2022-10-31T11:10:29;12.93;;;8.20;;
28551;SDS011;15752;49.560;8.708;2022-10-31T11:13:00;12.25;;;7.45;;
28551;SDS011;15752;49.560;8.708;2022-10-31T11:15:37;11.40;;;7.50;;
28551;SDS011;15752;49.560;8.708;2022-10-31T11:18:19;12.45;;;7.80;;
28551;SDS011;15752;49.560;8.708;2022-10-31T11:20:56;9.98;;;7.40;;
28551;SDS011;15752;49.560;8.708;2022-10-31T11:23:27;11.25;;;7.35;;
28551;SDS011;15752;49.560;8.708;2022-10-31T11:25:56;11.73;;;7.20;;
28551;SDS011;15752;49.560;8.708;2022-10-31T11:28:28;9.55;;;6.32;;
28551;SDS011;15752;49.560;8.708;2022-10-31T11:31:00;11.80;;;6.88;;
28551;SDS011;15752;49.560;8.708;2022-10-31T11:33:34;12.02;;;6.90;;
28551;SDS011;15752;49.560;8.708;2022-10-31T11:36:14;9.43;;;7.05;;
28551;SDS011;15752;49.560;8.708;2022-10-31T11:38:46;14.02;;;7.28;;
28551;SDS011;15752;49.560;8.708;2022-10-31T11:41:16;13.13;;;8.95;;
28551;SDS011;15752;49.560;8.708;2022-10-31T11:43:48;12.50;;;7.25;;
28551;SDS011;15752;49.560;8.708;2022-10-31T11:46:21;13.05;;;9.38;;
28551;SDS011;15752;49.560;8.708;2022-10-31T11:48:58;10.90;;;8.00;;
28551;SDS011;15752;49.560;8.708;2022-10-31T11:51:27;10.23;;;7.40;;
28551;SDS011;15752;49.560;8.708;2022-10-31T11:53:59;10.60;;;6.50;;
28551;SDS011;15752;49.560;8.708;2022-10-31T11:56:38;10.75;;;7.32;;
28551;SDS011;15752;49.560;8.708;2022-10-31T11:59:17;9.52;;;6.45;;
28551;SDS011;15752;49.560;8.708;2022-10-31T12:01:51;11.88;;;7.28;;
28551;SDS011;15752;49.560;8.708;2022-10-31T12:04:28;10.20;;;6.90;;
28551;SDS011;15752;49.560;8.708;2022-10-31T12:07:05;8.20;;;6.63;;
28551;SDS011;15752;49.560;8.708;2022-10-31T12:09:35;12.70;;;7.88;;
28551;SDS011;15752;49.560;8.708;2022-10-31T12:12:23;7.78;;;6.63;;
28551;SDS011;15752;49.560;8.708;2022-10-31T12:15:14;10.85;;;6.43;;
28551;SDS011;15752;49.560;8.708;2022-10-31T12:21:08;10.77;;;6.70;;
28551;SDS011;15752;49.560;8.708;2022-10-31T12:23:49;10.73;;;6.63;;
28551;SDS011;15752;49.560;8.708;2022-10-31T12:26:30;12.00;;;7.55;;
28551;SDS011;15752;49.560;8.708;2022-10-31T12:29:10;8.88;;;7.28;;
28551;SDS011;15752;49.560;8.708;2022-10-31T12:31:53;12.90;;;7.22;;
28551;SDS011;15752;49.560;8.708;2022-10-31T12:34:49;14.07;;;7.63;;
28551;SDS011;15752;49.560;8.708;2022-10-31T12:37:44;9.10;;;7.05;;
28551;SDS011;15752;49.560;8.708;2022-10-31T12:40:33;11.57;;;6.95;;
28551;SDS011;15752;49.560;8.708;2022-10-31T12:46:07;9.60;;;6.88;;
28551;SDS011;15752;49.560;8.708;2022-10-31T12:48:46;9.30;;;7.05;;
28551;SDS011;15752;49.560;8.708;2022-10-31T12:51:36;9.32;;;6.97;;
28551;SDS011;15752;49.560;8.708;2022-10-31T12:54:27;14.43;;;7.47;;
28551;SDS011;15752;49.560;8.708;2022-10-31T12:57:16;9.40;;;7.00;;
28551;SDS011;15752;49.560;8.708;2022-10-31T12:59:52;10.25;;;6.55;;
28551;SDS011;15752;49.560;8.708;2022-10-31T13:02:26;9.02;;;7.38;;
28551;SDS011;15752;49.560;8.708;2022-10-31T13:05:01;10.52;;;7.07;;
28551;SDS011;15752;49.560;8.708;2022-10-31T13:07:36;15.63;;;8.10;;
28551;SDS011;15752;49.560;8.708;2022-10-31T13:10:13;10.57;;;7.10;;
28551;SDS011;15752;49.560;8.708;2022-10-31T13:12:46;8.88;;;7.45;;
28551;SDS011;15752;49.560;8.708;2022-10-31T13:15:20;8.75;;;6.70;;
28551;SDS011;15752;49.560;8.708;2022-10-31T13:17:52;12.80;;;7.15;;
28551;SDS011;15752;49.560;8.708;2022-10-31T13:20:25;11.77;;;7.13;;
28551;SDS011;15752;49.560;8.708;2022-10-31T13:23:03;12.13;;;7.53;;
28551;SDS011;15752;49.560;8.708;2022-10-31T13:25:58;9.27;;;7.50;;
28551;SDS011;15752;49.560;8.708;2022-10-31T13:28:36;15.05;;;6.65;;
28551;SDS011;15752;49.560;8.708;2022-10-31T13:31:11;12.85;;;7.45;;
28551;SDS011;15752;49.560;8.708;2022-10-31T13:33:42;12.02;;;7.18;;
28551;SDS011;15752;49.560;8.708;2022-10-31T13:36:18;7.88;;;7.05;;
28551;SDS011;15752;49.560;8.708;2022-10-31T13:38:56;8.60;;;7.10;;
28551;SDS011;15752;49.560;8.708;2022-10-31T13:41:32;12.75;;;6.95;;
28551;SDS011;15752;49.560;8.708;2022-10-31T13:44:11;9.48;;;6.18;;
28551;SDS011;15752;49.560;8.708;2022-10-31T13:46:43;10.85;;;6.93;;
28551;SDS011;15752;49.560;8.708;2022-10-31T13:49:24;9.23;;;7.03;;
28551;SDS011;15752;49.560;8.708;2022-10-31T13:52:12;12.13;;;7.25;;
28551;SDS011;15752;49.560;8.708;2022-10-31T13:54:45;9.55;;;7.05;;
28551;SDS011;15752;49.560;8.708;2022-10-31T13:57:18;11.88;;;6.82;;
28551;SDS011;15752;49.560;8.708;2022-10-31T14:00:00;7.90;;;6.93;;
28551;SDS011;15752;49.560;8.708;2022-10-31T14:02:43;10.55;;;6.75;;
28551;SDS011;15752;49.560;8.708;2022-10-31T14:05:20;9.07;;;5.82;;
28551;SDS011;15752;49.560;8.708;2022-10-31T14:10:24;9.70;;;6.93;;
28551;SDS011;15752;49.560;8.708;2022-10-31T14:13:02;10.07;;;6.72;;
28551;SDS011;15752;49.560;8.708;2022-10-31T14:15:35;9.57;;;6.93;;
28551;SDS011;15752;49.560;8.708;2022-10-31T14:18:06;10.30;;;6.95;;
28551;SDS011;15752;49.560;8.708;2022-10-31T14:20:49;8.80;;;6.45;;
28551;SDS011;15752;49.560;8.708;2022-10-31T14:23:37;9.20;;;6.40;;
28551;SDS011;15752;49.560;8.708;2022-10-31T14:26:18;12.82;;;6.63;;
28551;SDS011;15752;49.560;8.708;2022-10-31T14:29:20;10.00;;;7.60;;
28551;SDS011;15752;49.560;8.708;2022-10-31T14:31:55;14.77;;;9.02;;
28551;SDS011;15752;49.560;8.708;2022-10-31T14:34:30;11.43;;;8.77;;
28551;SDS011;15752;49.560;8.708;2022-10-31T14:37:13;15.45;;;9.82;;
28551;SDS011;15752;49.560;8.708;2022-10-31T14:40:12;12.32;;;9.35;;
28551;SDS011;15752;49.560;8.708;2022-10-31T14:43:01;14.85;;;9.65;;
28551;SDS011;15752;49.560;8.708;2022-10-31T14:45:54;13.68;;;9.70;;
28551;SDS011;15752;49.560;8.708;2022-10-31T14:48:33;11.75;;;9.27;;
28551;SDS011;15752;49.560;8.708;2022-10-31T14:51:26;14.30;;;8.30;;
28551;SDS011;15752;49.560;8.708;2022-10-31T14:54:02;14.23;;;9.32;;
28551;SDS011;15752;49.560;8.708;2022-10-31T14:56:34;10.80;;;7.95;;
28551;SDS011;15752;49.560;8.708;2022-10-31T14:59:12;12.38;;;8.75;;
28551;SDS011;15752;49.560;8.708;2022-10-31T15:01:48;11.07;;;8.82;;
28551;SDS011;15752;49.560;8.708;2022-10-31T15:04:25;10.63;;;8.00;;
28551;SDS011;15752;49.560;8.708;2022-10-31T15:06:58;15.88;;;8.55;;
28551;SDS011;15752;49.560;8.708;2022-10-31T15:09:33;11.32;;;8.13;;
28551;SDS011;15752;49.560;8.708;2022-10-31T15:12:16;12.75;;;8.50;;
28551;SDS011;15752;49.560;8.708;2022-10-31T15:14:54;11.23;;;8.43;;
28551;SDS011;15752;49.560;8.708;2022-10-31T15:17:25;12.07;;;8.27;;
28551;SDS011;15752;49.560;8.708;2022-10-31T15:19:54;14.10;;;9.32;;
28551;SDS011;15752;49.560;8.708;2022-10-31T15:22:23;11.93;;;8.32;;
28551;SDS011;15752;49.560;8.708;2022-10-31T15:24:59;10.32;;;8.88;;
28551;SDS011;15752;49.560;8.708;2022-10-31T15:27:27;11.35;;;8.02;;
28551;SDS011;15752;49.560;8.708;2022-10-31T15:29:57;16.67;;;9.13;;
28551;SDS011;15752;49.560;8.708;2022-10-31T15:32:27;12.45;;;9.23;;
28551;SDS011;15752;49.560;8.708;2022-10-31T15:34:56;10.90;;;8.23;;
28551;SDS011;15752;49.560;8.708;2022-10-31T15:37:25;12.95;;;8.38;;
28551;SDS011;15752;49.560;8.708;2022-10-31T15:39:55;15.60;;;9.07;;
28551;SDS011;15752;49.560;8.708;2022-10-31T15:42:24;11.43;;;8.45;;
28551;SDS011;15752;49.560;8.708;2022-10-31T15:44:59;12.55;;;8.73;;
28551;SDS011;15752;49.560;8.708;2022-10-31T15:47:30;10.13;;;8.25;;
28551;SDS011;15752;49.560;8.708;2022-10-31T15:49:59;10.45;;;7.40;;
28551;SDS011;15752;49.560;8.708;2022-10-31T15:52:29;11.32;;;7.75;;
28551;SDS011;15752;49.560;8.708;2022-10-31T15:55:03;10.07;;;7.43;;
28551;SDS011;15752;49.560;8.708;2022-10-31T15:57:44;9.45;;;6.93;;
28551;SDS011;15752;49.560;8.708;2022-10-31T16:00:24;10.20;;;7.10;;
28551;SDS011;15752;49.560;8.708;2022-10-31T16:03:02;11.88;;;7.65;;
28551;SDS011;15752;49.560;8.708;2022-10-31T16:05:34;10.98;;;6.72;;
28551;SDS011;15752;49.560;8.708;2022-10-31T16:10:54;8.68;;;6.65;;
28551;SDS011;15752;49.560;8.708;2022-10-31T16:13:24;10.95;;;7.25;;
28551;SDS011;15752;49.560;8.708;2022-10-31T16:16:00;11.57;;;8.20;;
28551;SDS011;15752;49.560;8.708;2022-10-31T16:18:50;8.93;;;7.28;;
28551;SDS011;15752;49.560;8.708;2022-10-31T16:21:24;13.75;;;9.35;;
28551;SDS011;15752;49.560;8.708;2022-10-31T16:23:58;13.98;;;8.93;;
28551;SDS011;15752;49.560;8.708;2022-10-31T16:26:31;11.48;;;8.05;;
28551;SDS011;15752;49.560;8.708;2022-10-31T16:29:01;13.43;;;9.30;;
28551;SDS011;15752;49.560;8.708;2022-10-31T16:31:37;12.73;;;9.55;;
28551;SDS011;15752;49.560;8.708;2022-10-31T16:34:12;13.70;;;9.90;;
28551;SDS011;15752;49.560;8.708;2022-10-31T16:36:45;12.82;;;10.05;;
28551;SDS011;15752;49.560;8.708;2022-10-31T16:39:14;15.25;;;11.75;;
28551;SDS011;15752;49.560;8.708;2022-10-31T16:41:44;16.25;;;10.15;;
28551;SDS011;15752;49.560;8.708;2022-10-31T16:44:18;12.95;;;9.27;;
28551;SDS011;15752;49.560;8.708;2022-10-31T16:47:00;18.08;;;11.68;;
28551;SDS011;15752;49.560;8.708;2022-10-31T16:49:39;16.02;;;11.90;;
28551;SDS011;15752;49.560;8.708;2022-10-31T16:52:09;16.63;;;11.07;;
28551;SDS011;15752;49.560;8.708;2022-10-31T16:54:37;14.60;;;11.20;;
28551;SDS011;15752;49.560;8.708;2022-10-31T16:57:06;13.70;;;11.35;;
28551;SDS011;15752;49.560;8.708;2022-10-31T16:59:41;12.18;;;9.95;;
28551;SDS011;15752;49.560;8.708;2022-10-31T17:02:13;14.10;;;10.57;;
28551;SDS011;15752;49.560;8.708;2022-10-31T17:04:43;14.07;;;10.23;;
28551;SDS011;15752;49.560;8.708;2022-10-31T17:07:16;15.23;;;10.52;;
28551;SDS011;15752;49.560;8.708;2022-10-31T17:09:44;20.08;;;14.32;;
28551;SDS011;15752;49.560;8.708;2022-10-31T17:12:14;16.88;;;11.98;;
28551;SDS011;15752;49.560;8.708;2022-10-31T17:14:46;18.42;;;12.48;;
28551;SDS011;15752;49.560;8.708;2022-10-31T17:17:19;14.35;;;10.45;;
28551;SDS011;15752;49.560;8.708;2022-10-31T17:19:58;13.70;;;9.23;;
28551;SDS011;15752;49.560;8.708;2022-10-31T17:22:30;15.15;;;10.98;;
28551;SDS011;15752;49.560;8.708;2022-10-31T17:24:58;19.83;;;12.57;;
28551;SDS011;15752;49.560;8.708;2022-10-31T17:27:27;17.23;;;11.13;;
28551;SDS011;15752;49.560;8.708;2022-10-31T17:29:55;15.25;;;11.90;;
28551;SDS011;15752;49.560;8.708;2022-10-31T17:32:25;19.13;;;13.02;;
28551;SDS011;15752;49.560;8.708;2022-10-31T17:34:53;16.92;;;13.32;;
28551;SDS011;15752;49.560;8.708;2022-10-31T17:37:22;15.30;;;12.40;;
28551;SDS011;15752;49.560;8.708;2022-10-31T17:39:50;17.00;;;12.32;;
28551;SDS011;15752;49.560;8.708;2022-10-31T17:42:19;16.60;;;11.43;;
28551;SDS011;15752;49.560;8.708;2022-10-31T17:44:48;22.77;;;17.17;;
28551;SDS011;15752;49.560;8.708;2022-10-31T17:47:16;16.23;;;11.35;;
28551;SDS011;15752;49.560;8.708;2022-10-31T17:49:46;15.45;;;11.15;;
28551;SDS011;15752;49.560;8.708;2022-10-31T17:52:15;15.10;;;11.50;;
28551;SDS011;15752;49.560;8.708;2022-10-31T17:54:44;25.08;;;17.58;;
28551;SDS011;15752;49.560;8.708;2022-10-31T17:57:15;23.73;;;17.23;;
28551;SDS011;15752;49.560;8.708;2022-10-31T17:59:43;25.10;;;20.20;;
28551;SDS011;15752;49.560;8.708;2022-10-31T18:02:12;23.58;;;18.00;;
28551;SDS011;15752;49.560;8.708;2022-10-31T18:04:41;26.58;;;21.05;;
28551;SDS011;15752;49.560;8.708;2022-10-31T18:07:10;25.90;;;18.63;;
28551;SDS011;15752;49.560;8.708;2022-10-31T18:09:45;22.23;;;16.48;;
28551;SDS011;15752;49.560;8.708;2022-10-31T18:12:14;21.50;;;16.33;;
28551;SDS011;15752;49.560;8.708;2022-10-31T18:14:43;23.42;;;15.45;;
28551;SDS011;15752;49.560;8.708;2022-10-31T18:17:14;18.77;;;15.63;;
28551;SDS011;15752;49.560;8.708;2022-10-31T18:19:42;28.20;;;18.90;;
28551;SDS011;15752;49.560;8.708;2022-10-31T18:22:12;25.88;;;17.92;;
28551;SDS011;15752;49.560;8.708;2022-10-31T18:24:40;32.42;;;22.13;;
28551;SDS011;15752;49.560;8.708;2022-10-31T18:27:09;37.63;;;26.30;;
28551;SDS011;15752;49.560;8.708;2022-10-31T18:29:38;42.85;;;25.92;;
28551;SDS011;15752;49.560;8.708;2022-10-31T18:32:06;34.00;;;22.83;;
28551;SDS011;15752;49.560;8.708;2022-10-31T18:34:35;32.13;;;20.52;;
28551;SDS011;15752;49.560;8.708;2022-10-31T18:37:07;28.63;;;17.55;;
28551;SDS011;15752;49.560;8.708;2022-10-31T18:39:37;25.27;;;15.67;;
28551;SDS011;15752;49.560;8.708;2022-10-31T18:42:06;16.17;;;11.55;;
28551;SDS011;15752;49.560;8.708;2022-10-31T18:44:34;22.05;;;12.65;;
28551;SDS011;15752;49.560;8.708;2022-10-31T18:47:03;15.57;;;11.33;;
28551;SDS011;15752;49.560;8.708;2022-10-31T18:49:34;16.73;;;8.15;;
28551;SDS011;15752;49.560;8.708;2022-10-31T18:52:03;26.63;;;13.30;;
28551;SDS011;15752;49.560;8.708;2022-10-31T18:54:31;21.00;;;16.50;;
28551;SDS011;15752;49.560;8.708;2022-10-31T18:57:01;21.23;;;13.98;;
28551;SDS011;15752;49.560;8.708;2022-10-31T18:59:30;15.23;;;12.00;;
28551;SDS011;15752;49.560;8.708;2022-10-31T19:01:59;19.07;;;11.50;;
28551;SDS011;15752;49.560;8.708;2022-10-31T19:04:27;16.73;;;11.73;;
28551;SDS011;15752;49.560;8.708;2022-10-31T19:06:56;17.10;;;10.48;;
28551;SDS011;15752;49.560;8.708;2022-10-31T19:09:25;13.43;;;10.43;;
28551;SDS011;15752;49.560;8.708;2022-10-31T19:11:58;17.33;;;9.73;;
28551;SDS011;15752;49.560;8.708;2022-10-31T19:14:28;14.73;;;10.30;;
28551;SDS011;15752;49.560;8.708;2022-10-31T19:16:59;15.63;;;9.70;;
28551;SDS011;15752;49.560;8.708;2022-10-31T19:19:27;11.33;;;8.30;;
28551;SDS011;15752;49.560;8.708;2022-10-31T19:21:56;13.10;;;8.57;;
28551;SDS011;15752;49.560;8.708;2022-10-31T19:24:24;11.90;;;7.82;;
28551;SDS011;15752;49.560;8.708;2022-10-31T19:26:53;9.80;;;7.38;;
28551;SDS011;15752;49.560;8.708;2022-10-31T19:29:22;11.17;;;8.30;;
28551;SDS011;15752;49.560;8.708;2022-10-31T19:31:52;16.93;;;8.70;;
28551;SDS011;15752;49.560;8.708;2022-10-31T19:34:20;13.20;;;9.52;;
28551;SDS011;15752;49.560;8.708;2022-10-31T19:36:49;15.80;;;9.63;;
28551;SDS011;15752;49.560;8.708;2022-10-31T19:39:17;13.43;;;10.07;;
28551;SDS011;15752;49.560;8.708;2022-10-31T19:41:46;12.10;;;9.27;;
28551;SDS011;15752;49.560;8.708;2022-10-31T19:44:14;15.07;;;9.73;;
28551;SDS011;15752;49.560;8.708;2022-10-31T19:46:44;15.57;;;10.63;;
28551;SDS011;15752;49.560;8.708;2022-10-31T19:49:20;15.27;;;9.97;;
28551;SDS011;15752;49.560;8.708;2022-10-31T19:51:49;14.83;;;11.37;;
28551;SDS011;15752;49.560;8.708;2022-10-31T19:54:17;19.07;;;14.40;;
28551;SDS011;15752;49.560;8.708;2022-10-31T19:56:46;19.47;;;14.27;;
28551;SDS011;15752;49.560;8.708;2022-10-31T19:59:14;13.93;;;10.10;;
28551;SDS011;15752;49.560;8.708;2022-10-31T20:01:43;14.52;;;11.25;;
28551;SDS011;15752;49.560;8.708;2022-10-31T20:04:11;14.30;;;11.50;;
28551;SDS011;15752;49.560;8.708;2022-10-31T20:06:41;15.00;;;11.40;;
28551;SDS011;15752;49.560;8.708;2022-10-31T20:09:10;17.30;;;13.67;;
28551;SDS011;15752;49.560;8.708;2022-10-31T20:11:40;19.77;;;14.33;;
28551;SDS011;15752;49.560;8.708;2022-10-31T20:14:14;21.87;;;13.53;;
28551;SDS011;15752;49.560;8.708;2022-10-31T20:16:44;12.53;;;10.57;;
28551;SDS011;15752;49.560;8.708;2022-10-31T20:19:13;15.67;;;11.43;;
28551;SDS011;15752;49.560;8.708;2022-10-31T20:21:43;14.03;;;10.63;;
28551;SDS011;15752;49.560;8.708;2022-10-31T20:24:11;15.87;;;10.77;;
28551;SDS011;15752;49.560;8.708;2022-10-31T20:26:40;15.40;;;9.97;;
28551;SDS011;15752;49.560;8.708;2022-10-31T20:29:11;13.50;;;9.87;;
28551;SDS011;15752;49.560;8.708;2022-10-31T20:31:41;14.73;;;9.63;;
28551;SDS011;15752;49.560;8.708;2022-10-31T20:34:11;12.53;;;8.73;;
28551;SDS011;15752;49.560;8.708;2022-10-31T20:36:40;16.13;;;10.03;;
28551;SDS011;15752;49.560;8.708;2022-10-31T20:39:13;14.20;;;9.80;;
28551;SDS011;15752;49.560;8.708;2022-10-31T20:41:42;14.43;;;10.47;;
28551;SDS011;15752;49.560;8.708;2022-10-31T20:44:10;12.73;;;10.27;;
28551;SDS011;15752;49.560;8.708;2022-10-31T20:46:41;12.13;;;9.63;;
28551;SDS011;15752;49.560;8.708;2022-10-31T20:49:10;15.07;;;10.23;;
28551;SDS011;15752;49.560;8.708;2022-10-31T20:51:38;16.97;;;10.43;;
28551;SDS011;15752;49.560;8.708;2022-10-31T20:54:09;15.77;;;11.30;;
28551;SDS011;15752;49.560;8.708;2022-10-31T20:56:40;16.63;;;10.93;;
28551;SDS011;15752;49.560;8.708;2022-10-31T20:59:09;12.27;;;10.30;;
28551;SDS011;15752;49.560;8.708;2022-10-31T21:01:40;17.83;;;11.10;;
28551;SDS011;15752;49.560;8.708;2022-10-31T21:04:09;13.90;;;10.97;;
28551;SDS011;15752;49.560;8.708;2022-10-31T21:06:38;18.33;;;11.17;;
28551;SDS011;15752;49.560;8.708;2022-10-31T21:09:15;14.40;;;11.20;;
28551;SDS011;15752;49.560;8.708;2022-10-31T21:11:44;14.20;;;11.30;;
28551;SDS011;15752;49.560;8.708;2022-10-31T21:14:13;15.00;;;12.67;;
28551;SDS011;15752;49.560;8.708;2022-10-31T21:16:41;18.03;;;13.33;;
28551;SDS011;15752;49.560;8.708;2022-10-31T21:19:10;15.60;;;12.77;;
28551;SDS011;15752;49.560;8.708;2022-10-31T21:21:44;17.23;;;12.90;;
28551;SDS011;15752;49.560;8.708;2022-10-31T21:24:21;18.97;;;12.77;;
28551;SDS011;15752;49.560;8.708;2022-10-31T21:26:56;15.60;;;12.17;;
28551;SDS011;15752;49.560;8.708;2022-10-31T21:29:28;16.30;;;12.13;;
28551;SDS011;15752;49.560;8.708;2022-10-31T21:35:04;13.60;;;11.10;;
28551;SDS011;15752;49.560;8.708;2022-10-31T21:37:33;17.50;;;12.03;;
28551;SDS011;15752;49.560;8.708;2022-10-31T21:40:10;16.43;;;11.97;;
28551;SDS011;15752;49.560;8.708;2022-10-31T21:45:38;25.17;;;16.33;;
28551;SDS011;15752;49.560;8.708;2022-10-31T21:48:13;20.27;;;14.83;;
28551;SDS011;15752;49.560;8.708;2022-10-31T21:50:48;17.60;;;12.90;;
28551;SDS011;15752;49.560;8.708;2022-10-31T21:53:29;15.47;;;12.80;;
28551;SDS011;15752;49.560;8.708;2022-10-31T21:56:23;17.13;;;12.60;;
28551;SDS011;15752;49.560;8.708;2022-10-31T21:58:56;17.37;;;11.97;;
28551;SDS011;15752;49.560;8.708;2022-10-31T22:01:39;15.67;;;11.40;;
28551;SDS011;15752;49.560;8.708;2022-10-31T22:04:36;15.20;;;11.03;;
28551;SDS011;15752;49.560;8.708;2022-10-31T22:07:18;14.37;;;10.77;;
28551;SDS011;15752;49.560;8.708;2022-10-31T22:09:52;15.77;;;11.50;;
28551;SDS011;15752;49.560;8.708;2022-10-31T22:12:28;15.23;;;10.47;;
28551;SDS011;15752;49.560;8.708;2022-10-31T22:14:58;18.37;;;11.17;;
28551;SDS011;15752;49.560;8.708;2022-10-31T22:17:58;13.90;;;10.53;;
28551;SDS011;15752;49.560;8.708;2022-10-31T22:20:45;13.83;;;10.97;;
28551;SDS011;15752;49.560;8.708;2022-10-31T22:23:20;17.13;;;11.03;;
28551;SDS011;15752;49.560;8.708;2022-10-31T22:25:54;15.57;;;10.60;;
28551;SDS011;15752;49.560;8.708;2022-10-31T22:28:31;20.57;;;11.80;;
28551;SDS011;15752;49.560;8.708;2022-10-31T22:34:09;13.50;;;9.27;;
28551;SDS011;15752;49.560;8.708;2022-10-31T22:36:47;16.47;;;11.47;;
28551;SDS011;15752;49.560;8.708;2022-10-31T22:39:22;17.03;;;11.40;;
28551;SDS011;15752;49.560;8.708;2022-10-31T22:42:21;16.50;;;10.47;;
28551;SDS011;15752;49.560;8.708;2022-10-31T22:45:51;14.50;;;10.00;;
28551;SDS011;15752;49.560;8.708;2022-10-31T22:49:22;16.23;;;10.13;;
28551;SDS011;15752;49.560;8.708;2022-10-31T22:51:55;15.87;;;10.77;;
28551;SDS011;15752;49.560;8.708;2022-10-31T22:55:36;11.40;;;9.50;;
28551;SDS011;15752;49.560;8.708;2022-10-31T22:58:04;15.10;;;11.17;;
28551;SDS011;15752;49.560;8.708;2022-10-31T23:00:33;15.10;;;11.27;;
28551;SDS011;15752;49.560;8.708;2022-10-31T23:03:03;15.87;;;11.40;;
28551;SDS011;15752;49.560;8.708;2022-10-31T23:05:31;14.03;;;11.30;;
28551;SDS011;15752;49.560;8.708;2022-10-31T23:08:00;15.93;;;11.00;;
28551;SDS011;15752;49.560;8.708;2022-10-31T23:10:30;15.13;;;11.13;;
28551;SDS011;15752;49.560;8.708;2022-10-31T23:12:59;13.83;;;10.50;;
28551;SDS011;15752;49.560;8.708;2022-10-31T23:15:45;13.13;;;10.80;;
28551;SDS011;15752;49.560;8.708;2022-10-31T23:18:15;13.70;;;11.00;;
28551;SDS011;15752;49.560;8.708;2022-10-31T23:21:04;14.73;;;11.70;;
28551;SDS011;15752;49.560;8.708;2022-10-31T23:23:35;15.17;;;11.63;;
28551;SDS011;15752;49.560;8.708;2022-10-31T23:26:04;14.03;;;11.40;;
28551;SDS011;15752;49.560;8.708;2022-10-31T23:28:50;13.17;;;10.60;;
28551;SDS011;15752;49.560;8.708;2022-10-31T23:31:19;18.53;;;11.10;;
28551;SDS011;15752;49.560;8.708;2022-10-31T23:33:49;13.73;;;10.20;;
28551;SDS011;15752;49.560;8.708;2022-10-31T23:36:17;16.47;;;10.33;;
28551;SDS011;15752;49.560;8.708;2022-10-31T23:38:46;13.03;;;10.13;;
28551;SDS011;15752;49.560;8.708;2022-10-31T23:41:16;10.77;;;9.63;;
28551;SDS011;15752;49.560;8.708;2022-10-31T23:43:44;13.30;;;9.90;;
28551;SDS011;15752;49.560;8.708;2022-10-31T23:46:14;12.17;;;9.83;;
28551;SDS011;15752;49.560;8.708;2022-10-31T23:48:42;16.40;;;10.67;;
28551;SDS011;15752;49.560;8.708;2022-10-31T23:51:14;17.53;;;10.87;;
28551;SDS011;15752;49.560;8.708;2022-10-31T23:53:43;13.60;;;10.90;;
28551;SDS011;15752;49.560;8.708;2022-10-31T23:56:12;15.63;;;10.40;;
28551;SDS011;15752;49.560;8.708;2022-10-31T23:58:41;12.17;;;9.70;;
